Time;durP1;ratioP1;P1;durP2;ratioP2;P2;SDS_P1;SDS_P2;PMS_P1;PMS_P2;Temp;Humidity;BMP_temperature;BMP_pressure;BME280_temperature;BME280_humidity;BME280_pressure;Samples;Min_cycle;Max_cycle;Signal;HPM_P1;HPM_P2
2021/12/05 00:18:42;;;;;;;;;;;;;;;-144.99;100.00;52666.19;5042779;28;19953;-62
2021/12/05 00:21:39;;;;;;;;;;;;;;;-144.99;100.00;52651.94;5045307;28;19981;-63
2021/12/05 00:24:10;;;;;;;;;;;;;;;-144.99;100.00;52651.94;5047641;28;20090;-63
2021/12/05 00:26:38;;;;;;;;;;;;;;;-144.99;100.00;52627.47;5046499;28;19977;-63
2021/12/05 00:29:12;;;;;;;;;;;;;;;-144.99;100.00;52619.31;5045089;28;20488;-64
2021/12/05 00:31:52;;;;;;;;;;;;;;;-144.99;100.00;52647.84;5047724;28;20410;-67
2021/12/05 00:57:17;;;;;;;;;;;;;;;-144.99;100.00;52623.38;5044393;28;19980;-64
2021/12/05 01:00:00;;;;;;;;;;;;;;;-144.99;100.00;52664.16;5046991;28;19973;-64
2021/12/05 01:02:48;;;;;;;;;;;;;;;-144.99;100.00;52631.53;5041471;28;19973;-64
2021/12/05 01:13:46;;;;;;;;;;;;;;;-144.99;100.00;52631.53;4977424;28;19990;-64
2021/12/05 01:16:18;;;;;;;;;;;;;;;-144.99;100.00;52680.47;4984761;28;20411;-64
2021/12/05 01:18:45;;;;;;;;;;;;;;;-144.99;100.00;52656.00;5010903;28;20000;-64
2021/12/05 01:21:14;;;;;;;;;;;;;;;-144.99;100.00;52692.69;5043862;28;19977;-64
2021/12/05 01:23:51;;;;;;;;;;;;;;;-144.99;100.00;52631.53;5047119;28;20035;-65
2021/12/05 01:26:21;;;;;;;;;;;;;;;-144.99;100.00;52688.63;5044866;28;19976;-63
2021/12/05 01:29:03;;;;;;;;;;;;;;;-144.99;100.00;52680.47;5045895;28;20399;-64
2021/12/05 01:31:41;;;;;;;;;;;;;;;-144.99;100.00;52651.94;5041404;28;20005;-66
2021/12/05 01:34:19;;;;;;;;;;;;;;;-144.99;100.00;52639.69;5046960;28;20004;-66
2021/12/05 01:36:56;;;;;;;;;;;;;;;-144.99;100.00;52647.84;5046591;28;19978;-65
2021/12/05 01:39:38;;;;;;;;;;;;;;;-144.99;100.00;52643.78;5043767;28;20429;-64
2021/12/05 01:53:52;;;;;;;;;;;;;;;-144.99;100.00;52623.38;5001818;28;20140;-63
2021/12/05 02:35:11;;;;;;;;;;;;;;;-144.99;100.00;52684.53;5031839;28;20091;-65
2021/12/05 02:38:04;;;;;;;;;;;;;;;-144.99;100.00;52615.25;5043413;28;19977;-65
2021/12/05 02:40:44;;;;;;;;;;;;;;;-144.99;100.00;52619.31;5043173;28;19977;-64
2021/12/05 02:43:13;;;;;;;;;;;;;;;-144.99;100.00;52635.63;5047771;28;20000;-64
2021/12/05 02:45:41;;;;;;;;;;;;;;;-144.99;100.00;52676.38;5049246;28;19978;-65
2021/12/05 02:48:08;;;;;;;;;;;;;;;-144.99;100.00;52664.16;5048830;28;19996;-65
2021/12/05 02:50:37;;;;;;;;;;;;;;;-144.99;100.00;52627.47;5048368;28;19988;-65
2021/12/05 02:53:12;;;;;;;;;;;;;;;-144.99;100.00;52647.84;5046445;28;20009;-65
2021/12/05 02:55:41;;;;;;;;;;;;;;;-144.99;100.00;52656.00;5046656;28;19976;-65
2021/12/05 02:58:17;;;;;;;;;;;;;;;-144.99;100.00;52623.38;5047874;28;20072;-65
2021/12/05 03:00:52;;;;;;;;;;;;;;;-144.99;100.00;52645.81;5047970;28;20304;-59
2021/12/05 03:03:21;;;;;;;;;;;;;;;-144.99;100.00;52619.31;5044187;28;20108;-60
2021/12/05 03:05:55;;;;;;;;;;;;;;;-144.99;100.00;52656.00;5047670;28;20037;-60
2021/12/05 03:08:22;;;;;;;;;;;;;;;-144.99;100.00;52688.63;5045719;28;19993;-59
2021/12/05 03:10:49;;;;;;;;;;;;;;;-144.99;100.00;52639.69;5045335;28;20368;-59
2021/12/05 03:13:16;;;;;;;;;;;;;;;-144.99;100.00;52639.69;5046937;28;19997;-59
2021/12/05 03:15:42;;;;;;;;;;;;;;;-144.99;100.00;52643.78;5044810;28;19974;-59
2021/12/05 03:18:09;;;;;;;;;;;;;;;-144.99;100.00;52631.53;5047542;28;19981;-59
2021/12/05 03:20:36;;;;;;;;;;;;;;;-144.99;100.00;52660.09;5042196;28;19981;-59
2021/12/05 03:23:03;;;;;;;;;;;;;;;-144.99;100.00;52637.66;5048791;28;19996;-59
2021/12/05 03:25:31;;;;;;;;;;;;;;;-144.99;100.00;52635.63;5045176;28;20059;-59
2021/12/05 03:27:58;;;;;;;;;;;;;;;-144.99;100.00;52647.84;5043124;28;19977;-59
2021/12/05 03:30:25;;;;;;;;;;;;;;;-144.99;100.00;52623.38;5044195;28;19925;-58
2021/12/05 03:32:53;;;;;;;;;;;;;;;-144.99;100.00;52660.09;5040370;28;19980;-63
2021/12/05 03:35:21;;;;;;;;;;;;;;;-144.99;100.00;52641.72;5047645;28;20027;-61
2021/12/05 03:37:48;;;;;;;;;;;;;;;-144.99;100.00;52668.22;5042737;28;20349;-62
2021/12/05 03:40:15;;;;;;;;;;;;;;;-144.99;100.00;52651.94;5048611;28;20360;-62
2021/12/05 03:42:43;;;;;;;;;;;;;;;-144.99;100.00;52639.69;5047631;28;20365;-61
2021/12/05 03:45:11;;;;;;;;;;;;;;;-144.99;100.00;52623.38;5037162;28;20231;-61
2021/12/05 03:47:38;;;;;;;;;;;;;;;-144.99;100.00;52656.00;5044757;28;19988;-61
2021/12/05 03:50:05;;;;;;;;;;;;;;;-144.99;100.00;52680.47;5050148;28;20232;-61
2021/12/05 03:52:32;;;;;;;;;;;;;;;-144.99;100.00;52639.69;5046302;28;19977;-62
2021/12/05 03:54:58;;;;;;;;;;;;;;;-144.99;100.00;52631.53;5046089;28;20028;-62
2021/12/05 03:57:25;;;;;;;;;;;;;;;-144.99;100.00;52639.69;5042971;28;20457;-62
2021/12/05 03:59:53;;;;;;;;;;;;;;;-144.99;100.00;52656.00;5046917;28;20072;-63
2021/12/05 04:02:19;;;;;;;;;;;;;;;-144.99;100.00;52639.69;5048751;28;20068;-64
2021/12/05 04:04:45;;;;;;;;;;;;;;;-144.99;100.00;52668.22;5047506;28;19965;-64
2021/12/05 04:07:15;;;;;;;;;;;;;;;-144.99;100.00;52656.00;5043606;28;19983;-63
2021/12/05 04:09:41;;;;;;;;;;;;;;;-144.99;100.00;52651.94;5042565;28;20426;-62
2021/12/05 04:12:09;;;;;;;;;;;;;;;-144.99;100.00;52684.53;5045357;28;19976;-62
2021/12/05 04:14:37;;;;;;;;;;;;;;;-144.99;100.00;52617.28;5044737;28;20183;-63
2021/12/05 04:17:06;;;;;;;;;;;;;;;-144.99;100.00;52639.69;5042164;28;20415;-63
2021/12/05 04:19:33;;;;;;;;;;;;;;;-144.99;100.00;52678.44;5043898;28;19988;-63
2021/12/05 04:21:59;;;;;;;;;;;;;;;-144.99;100.00;52643.78;5043735;28;19986;-64
2021/12/05 04:24:25;;;;;;;;;;;;;;;-144.99;100.00;52656.00;5046066;28;19989;-66
2021/12/05 04:26:52;;;;;;;;;;;;;;;-144.99;100.00;52598.94;5043792;28;19978;-66
2021/12/05 04:29:19;;;;;;;;;;;;;;;-144.99;100.00;52653.97;5043768;28;20096;-65
2021/12/05 04:31:45;;;;;;;;;;;;;;;-144.99;100.00;52627.47;5043708;28;19992;-65
2021/12/05 04:34:13;;;;;;;;;;;;;;;-144.99;100.00;52615.25;5047455;28;20449;-66
2021/12/05 04:36:40;;;;;;;;;;;;;;;-144.99;100.00;52645.81;5038914;28;19977;-65
2021/12/05 04:39:07;;;;;;;;;;;;;;;-144.99;100.00;52688.63;5046999;28;20379;-65
2021/12/05 04:41:33;;;;;;;;;;;;;;;-144.99;100.00;52647.84;5045437;28;19996;-65
2021/12/05 04:44:01;;;;;;;;;;;;;;;-144.99;100.00;52635.63;5046095;28;20042;-64
2021/12/05 04:46:28;;;;;;;;;;;;;;;-144.99;100.00;52647.84;5045696;28;20443;-64
2021/12/05 04:48:55;;;;;;;;;;;;;;;-144.99;100.00;52627.47;5043683;28;20386;-64
2021/12/05 04:51:26;;;;;;;;;;;;;;;-144.99;100.00;52676.38;5046073;28;19974;-64
2021/12/05 04:53:52;;;;;;;;;;;;;;;-144.99;100.00;52694.72;5042206;28;20477;-63
2021/12/05 04:56:19;;;;;;;;;;;;;;;-144.99;100.00;52666.19;5042717;28;19985;-64
2021/12/05 04:58:45;;;;;;;;;;;;;;;-144.99;100.00;52635.63;5049343;28;19977;-59
2021/12/05 05:01:12;;;;;;;;;;;;;;;-144.99;100.00;52623.38;5046769;28;19984;-59
2021/12/05 05:03:38;;;;;;;;;;;;;;;-144.99;100.00;52607.09;5046345;28;20523;-60
2021/12/05 05:06:10;;;;;;;;;;;;;;;-144.99;100.00;52627.47;5045294;28;20464;-59
2021/12/05 05:08:38;;;;;;;;;;;;;;;-144.99;100.00;52698.81;5048272;28;19973;-59
2021/12/05 05:11:07;;;;;;;;;;;;;;;-144.99;100.00;52668.22;5045517;28;19980;-60
2021/12/05 05:13:33;;;;;;;;;;;;;;;-144.99;100.00;52617.28;5047429;28;19989;-62
2021/12/05 05:16:02;;;;;;;;;;;;;;;-144.99;100.00;52680.47;5041215;28;20426;-61
2021/12/05 05:18:36;;;;;;;;;;;;;;;-144.99;100.00;52627.47;5045706;28;20004;-61
2021/12/05 05:21:09;;;;;;;;;;;;;;;-144.99;100.00;52688.63;5045975;28;20039;-61
2021/12/05 05:23:49;;;;;;;;;;;;;;;-144.99;100.00;52662.13;5059139;22;20427;-58
2021/12/05 05:27:01;;;;;;;;;;;;;;;-144.99;100.00;52680.47;5034824;28;20072;-58
2021/12/05 05:29:47;;;;;;;;;;;;;;;-144.99;100.00;52617.28;5043364;28;19993;-58
2021/12/05 05:46:02;;;;;;;;;;;;;;;-144.99;100.00;52651.94;5051811;28;20356;-62
2021/12/05 05:48:40;;;;;;;;;;;;;;;-144.99;100.00;52639.69;5062978;28;20421;-63
2021/12/05 05:51:07;;;;;;;;;;;;;;;-144.99;100.00;52647.84;5055193;28;19980;-62
2021/12/05 05:53:34;;;;;;;;;;;;;;;-144.99;100.00;52668.22;5065613;28;19992;-62
2021/12/05 05:56:01;;;;;;;;;;;;;;;-144.99;100.00;52680.47;5061911;28;20004;-62
2021/12/05 05:58:38;;;;;;;;;;;;;;;-144.99;100.00;52647.84;5063686;28;19977;-62
2021/12/05 06:01:08;;;;;;;;;;;;;;;-144.99;100.00;52688.63;5050949;28;20367;-63
2021/12/05 06:03:34;;;;;;;;;;;;;;;-144.99;100.00;52635.63;5057227;28;20031;-62
2021/12/05 06:06:03;;;;;;;;;;;;;;;-144.99;100.00;52633.59;5061779;28;20331;-63
2021/12/05 06:08:31;;;;;;;;;;;;;;;-144.99;100.00;52619.31;5062145;28;19984;-62
2021/12/05 06:10:58;;;;;;;;;;;;;;;-144.99;100.00;52623.38;5059903;28;19997;-61
2021/12/05 06:13:25;;;;;;;;;;;;;;;-144.99;100.00;52653.97;5054956;28;20000;-58
2021/12/05 06:15:53;;;;;;;;;;;;;;;-144.99;100.00;52617.28;5062604;28;19977;-58
2021/12/05 06:18:19;;;;;;;;;;;;;;;-144.99;100.00;52643.78;5063414;28;19992;-58
2021/12/05 06:20:46;;;;;;;;;;;;;;;-144.99;100.00;52619.31;5058207;28;20380;-58
2021/12/05 06:23:13;;;;;;;;;;;;;;;-144.99;100.00;52623.38;5049175;28;20001;-59
2021/12/05 06:25:41;;;;;;;;;;;;;;;-144.99;100.00;52637.66;5048978;28;20072;-59
2021/12/05 06:28:11;;;;;;;;;;;;;;;-144.99;100.00;52607.09;5047753;28;19977;-59
2021/12/05 06:30:46;;;;;;;;;;;;;;;-144.99;100.00;52664.16;5045427;28;20404;-59
2021/12/05 06:38:59;;;;;;;;;;;;;;;-144.99;100.00;52627.47;5047903;28;20028;-59
2021/12/05 06:41:35;;;;;;;;;;;;;;;-144.99;100.00;52615.25;5047450;28;19973;-58
2021/12/05 06:46:47;;;;;;;;;;;;;;;-144.99;100.00;52656.00;5046027;28;19980;-59
2021/12/05 06:49:15;;;;;;;;;;;;;;;-144.99;100.00;52645.81;5047071;28;20064;-59
2021/12/05 06:51:41;;;;;;;;;;;;;;;-144.99;100.00;52647.84;5048274;28;19980;-59
2021/12/05 06:54:08;;;;;;;;;;;;;;;-144.99;100.00;52596.88;5044990;28;20005;-62
2021/12/05 06:56:34;;;;;;;;;;;;;;;-144.99;100.00;52674.34;5047406;28;20331;-63
2021/12/05 06:59:01;;;;;;;;;;;;;;;-144.99;100.00;52653.97;5045416;28;19981;-63
2021/12/05 07:01:27;;;;;;;;;;;;;;;-144.99;100.00;52603.00;5046077;28;19988;-63
2021/12/05 07:03:55;;;;;;;;;;;;;;;-144.99;100.00;52623.38;5046872;28;19989;-62
2021/12/05 07:06:26;;;;;;;;;;;;;;;-144.99;100.00;52627.47;5047798;28;20500;-62
2021/12/05 07:08:57;;;;;;;;;;;;;;;-144.99;100.00;52639.69;5046951;28;20067;-63
2021/12/05 07:11:27;;;;;;;;;;;;;;;-144.99;100.00;52656.00;5043201;28;20504;-63
2021/12/05 07:16:39;;;;;;;;;;;;;;;-144.99;100.00;52641.72;5043827;28;20031;-60
2021/12/05 07:19:21;;;;;;;;;;;;;;;-144.99;100.00;52664.16;5046219;28;20078;-60
2021/12/05 07:21:53;;;;;;;;;;;;;;;-144.99;100.00;52647.84;5044276;28;20316;-59
2021/12/05 07:24:42;;;;;;;;;;;;;;;-144.99;100.00;52647.84;5044861;28;20448;-58
2021/12/05 07:40:49;;;;;;;;;;;;;;;-144.99;100.00;52656.00;5045351;28;20356;-60
2021/12/05 07:43:17;;;;;;;;;;;;;;;-144.99;100.00;52682.50;5041596;28;20134;-61
2021/12/05 07:45:49;;;;;;;;;;;;;;;-144.99;100.00;52656.00;5045275;28;19985;-61
2021/12/05 07:48:22;;;;;;;;;;;;;;;-144.99;100.00;52662.13;5044633;28;20421;-60
2021/12/05 07:50:54;;;;;;;;;;;;;;;-144.99;100.00;52611.16;5043102;28;20008;-62
2021/12/05 07:53:27;;;;;;;;;;;;;;;-144.99;100.00;52643.78;5043197;28;20462;-65
2021/12/05 07:55:57;;;;;;;;;;;;;;;-144.99;100.00;52611.16;5046488;28;19995;-64
2021/12/05 07:58:46;;;;;;;;;;;;;;;-144.99;100.00;52656.00;5047040;28;19984;-63
2021/12/05 08:15:13;;;;;;;;;;;;;;;-144.99;100.00;52656.00;5044690;28;20321;-61
2021/12/05 08:17:40;;;;;;;;;;;;;;;-144.99;100.00;52660.09;5046720;28;19988;-61
2021/12/05 08:20:08;;;;;;;;;;;;;;;-144.99;100.00;52676.38;5048204;28;20007;-61
2021/12/05 08:22:34;;;;;;;;;;;;;;;-144.99;100.00;52653.97;5047143;28;19996;-61
2021/12/05 08:25:09;;;;;;;;;;;;;;;-144.99;100.00;52645.81;5045206;28;20004;-62
2021/12/05 08:27:36;;;;;;;;;;;;;;;-144.99;100.00;52660.09;5046379;28;19981;-61
2021/12/05 08:30:09;;;;;;;;;;;;;;;-144.99;100.00;52637.66;5046283;28;20084;-61
2021/12/05 08:32:48;;;;;;;;;;;;;;;-144.99;100.00;52660.09;5047120;28;20035;-62
2021/12/05 08:35:39;;;;;;;;;;;;;;;-144.99;100.00;52641.72;5039221;28;20002;-61
2021/12/05 08:38:48;;;;;;;;;;;;;;;-144.99;100.00;52651.94;5046193;28;20067;-61
2021/12/05 09:25:04;;;;;;;;;;;;;;;-144.99;100.00;52603.00;5046433;28;20484;-67
2021/12/05 09:27:52;;;;;;;;;;;;;;;-144.99;100.00;52649.88;5047727;28;20360;-68
2021/12/05 10:09:08;;;;;;;;;;;;;;;-144.99;100.00;52643.78;5047954;28;19984;-69
2021/12/05 10:11:42;;;;;;;;;;;;;;;-144.99;100.00;52643.78;5044983;28;20524;-69
2021/12/05 10:14:24;;;;;;;;;;;;;;;-144.99;100.00;52645.81;5047570;28;19994;-69
2021/12/05 10:17:21;;;;;;;;;;;;;;;-144.99;100.00;52643.78;5047399;28;20257;-67
2021/12/05 10:36:19;;;;;;;;;;;;;;;-144.99;100.00;52635.63;4996292;28;20350;-69
2021/12/05 10:38:49;;;;;;;;;;;;;;;-144.99;100.00;52656.00;4991549;28;20458;-68
2021/12/05 10:41:33;;;;;;;;;;;;;;;-144.99;100.00;52651.94;5052488;28;20061;-69
2021/12/05 10:44:01;;;;;;;;;;;;;;;-144.99;100.00;52651.94;5043049;28;20017;-69
2021/12/05 10:46:29;;;;;;;;;;;;;;;-144.99;100.00;52639.69;5055205;28;19988;-68
2021/12/05 10:48:58;;;;;;;;;;;;;;;-144.99;100.00;52676.38;5053418;28;20341;-69
2021/12/05 10:51:28;;;;;;;;;;;;;;;-144.99;100.00;52635.63;5058075;28;20596;-69
2021/12/05 10:53:55;;;;;;;;;;;;;;;-144.99;100.00;52647.84;5058333;28;19997;-69
2021/12/05 10:56:23;;;;;;;;;;;;;;;-144.99;100.00;52658.03;5057001;28;19981;-69
2021/12/05 10:58:54;;;;;;;;;;;;;;;-144.99;100.00;52674.34;5057250;28;20166;-69
2021/12/05 11:01:29;;;;;;;;;;;;;;;-144.99;100.00;52639.69;5056583;28;20071;-70
2021/12/05 11:03:57;;;;;;;;;;;;;;;-144.99;100.00;52664.16;5053398;28;19988;-70
2021/12/05 11:06:31;;;;;;;;;;;;;;;-144.99;100.00;52660.09;5053083;28;19984;-69
2021/12/05 11:09:02;;;;;;;;;;;;;;;-144.99;100.00;52619.31;5055696;28;19986;-70
2021/12/05 11:11:28;;;;;;;;;;;;;;;-144.99;100.00;52641.72;5048838;28;19996;-70
2021/12/05 11:13:58;;;;;;;;;;;;;;;-144.99;100.00;52643.78;5044405;28;19993;-70
2021/12/05 11:16:35;;;;;;;;;;;;;;;-144.99;100.00;52635.63;5047387;28;19977;-69
2021/12/05 11:19:02;;;;;;;;;;;;;;;-144.99;100.00;52621.34;5053710;28;19984;-69
2021/12/05 11:21:33;;;;;;;;;;;;;;;-144.99;100.00;52651.94;5058799;28;19999;-69
2021/12/05 11:24:07;;;;;;;;;;;;;;;-144.99;100.00;52623.38;5050392;28;20048;-70
2021/12/05 11:26:34;;;;;;;;;;;;;;;-144.99;100.00;52649.88;5049534;28;20072;-69
2021/12/05 11:29:00;;;;;;;;;;;;;;;-144.99;100.00;52631.53;5055078;28;19981;-69
2021/12/05 11:31:28;;;;;;;;;;;;;;;-144.99;100.00;52651.94;5055235;28;20004;-69
2021/12/05 11:33:56;;;;;;;;;;;;;;;-144.99;100.00;52631.53;5043010;28;20007;-69
2021/12/05 11:36:26;;;;;;;;;;;;;;;-144.99;100.00;52621.34;5043824;28;19982;-68
2021/12/05 11:38:54;;;;;;;;;;;;;;;-144.99;100.00;52647.84;5044597;28;20374;-68
2021/12/05 11:41:23;;;;;;;;;;;;;;;-144.99;100.00;52651.94;5032189;28;19993;-69
2021/12/05 11:43:51;;;;;;;;;;;;;;;-144.99;100.00;52611.16;5043087;28;20024;-68
2021/12/05 11:46:19;;;;;;;;;;;;;;;-144.99;100.00;52611.16;5049568;28;20076;-69
2021/12/05 11:48:47;;;;;;;;;;;;;;;-144.99;100.00;52586.69;5056238;28;20060;-71
2021/12/05 11:51:22;;;;;;;;;;;;;;;-144.99;100.00;52643.78;5047220;28;20346;-69
2021/12/05 11:53:49;;;;;;;;;;;;;;;-144.99;100.00;52615.25;5048926;28;20222;-69
2021/12/05 11:56:21;;;;;;;;;;;;;;;-144.99;100.00;52643.78;5056331;28;20465;-69
2021/12/05 11:59:03;;;;;;;;;;;;;;;-144.99;100.00;52619.31;5046648;28;19985;-69
2021/12/05 12:01:33;;;;;;;;;;;;;;;-144.99;100.00;52621.34;5043092;28;19985;-69
2021/12/05 12:04:00;;;;;;;;;;;;;;;-144.99;100.00;52627.47;5049213;28;19997;-70
2021/12/05 12:06:26;;;;;;;;;;;;;;;-144.99;100.00;52643.78;5053571;28;19996;-70
2021/12/05 12:08:54;;;;;;;;;;;;;;;-144.99;100.00;52635.63;5058552;28;19988;-69
2021/12/05 12:11:22;;;;;;;;;;;;;;;-144.99;100.00;52647.84;5058711;28;20000;-69
2021/12/05 12:13:50;;;;;;;;;;;;;;;-144.99;100.00;52623.38;5049758;28;21267;-67
2021/12/05 12:16:17;;;;;;;;;;;;;;;-144.99;100.00;52635.63;5043881;28;19973;-69
2021/12/05 12:18:46;;;;;;;;;;;;;;;-144.99;100.00;52643.78;5048901;28;19977;-68
2021/12/05 12:21:13;;;;;;;;;;;;;;;-144.99;100.00;52643.78;5049715;28;20052;-68
2021/12/05 12:23:40;;;;;;;;;;;;;;;-144.99;100.00;52603.00;5053395;28;20003;-69
2021/12/05 12:26:09;;;;;;;;;;;;;;;-144.99;100.00;52627.47;5051580;28;19981;-68
2021/12/05 12:28:37;;;;;;;;;;;;;;;-144.99;100.00;52660.09;5049530;28;19973;-68
2021/12/05 12:31:05;;;;;;;;;;;;;;;-144.99;100.00;52631.53;5058815;28;19997;-69
2021/12/05 12:33:33;;;;;;;;;;;;;;;-144.99;100.00;52623.38;5059695;28;19993;-68
2021/12/05 12:35:59;;;;;;;;;;;;;;;-144.99;100.00;52623.38;5047080;28;20466;-68
2021/12/05 12:38:33;;;;;;;;;;;;;;;-144.99;100.00;52627.47;5044423;28;21275;-68
2021/12/05 12:41:00;;;;;;;;;;;;;;;-144.99;100.00;52611.16;5056835;28;19984;-68
2021/12/05 12:43:39;;;;;;;;;;;;;;;-144.99;100.00;52627.47;5048324;28;19997;-68
2021/12/05 12:46:17;;;;;;;;;;;;;;;-144.99;100.00;52672.31;5052317;28;19983;-68
2021/12/05 12:48:43;;;;;;;;;;;;;;;-144.99;100.00;52643.78;5044788;28;19981;-68
2021/12/05 12:51:24;;;;;;;;;;;;;;;-144.99;100.00;52637.66;5047966;28;20348;-68
2021/12/05 12:53:55;;;;;;;;;;;;;;;-144.99;100.00;52647.84;5059605;28;19993;-69
2021/12/05 12:56:23;;;;;;;;;;;;;;;-144.99;100.00;52607.09;5048981;28;19985;-68
2021/12/05 12:58:50;;;;;;;;;;;;;;;-144.99;100.00;52629.50;5050566;28;19981;-68
2021/12/05 13:01:37;;;;;;;;;;;;;;;-144.99;100.00;52666.19;5048589;28;19977;-68
2021/12/05 13:12:46;;;;;;;;;;;;;;;-144.99;100.00;52631.53;5056561;28;20361;-69
2021/12/05 13:15:19;;;;;;;;;;;;;;;-144.99;100.00;52607.09;4425456;28;10000711;-69
2021/12/05 13:17:48;;;;;;;;;;;;;;;-144.99;100.00;52631.53;5039186;28;19977;-68
2021/12/05 13:20:16;;;;;;;;;;;;;;;-144.99;100.00;52668.22;5042346;28;19981;-68
2021/12/05 13:22:58;;;;;;;;;;;;;;;-144.99;100.00;52639.69;5042087;28;20008;-68
2021/12/05 13:25:25;;;;;;;;;;;;;;;-144.99;100.00;52647.84;5048609;28;19987;-68
2021/12/05 13:27:51;;;;;;;;;;;;;;;-144.99;100.00;52609.13;5050159;28;20003;-69
2021/12/05 13:30:28;;;;;;;;;;;;;;;-144.99;100.00;52649.88;5053589;28;19977;-69
2021/12/05 13:33:09;;;;;;;;;;;;;;;-144.99;100.00;52647.84;5046983;28;20396;-68
2021/12/05 13:35:38;;;;;;;;;;;;;;;-144.99;100.00;52623.38;5043973;28;20589;-69
2021/12/05 13:38:06;;;;;;;;;;;;;;;-144.99;100.00;52635.63;5039167;28;20000;-68
2021/12/05 13:40:34;;;;;;;;;;;;;;;-144.99;100.00;52617.28;5051226;28;20339;-68
2021/12/05 13:43:05;;;;;;;;;;;;;;;-144.99;100.00;52643.78;5047855;28;19989;-68
2021/12/05 13:45:41;;;;;;;;;;;;;;;-144.99;100.00;52641.72;5057362;28;19989;-68
2021/12/05 13:48:15;;;;;;;;;;;;;;;-144.99;100.00;52651.94;5047876;28;20046;-68
2021/12/05 13:50:45;;;;;;;;;;;;;;;-144.99;100.00;52645.81;5044058;28;19980;-68
2021/12/05 13:53:32;;;;;;;;;;;;;;;-144.99;100.00;52627.47;5047605;28;20001;-68
2021/12/05 13:56:02;;;;;;;;;;;;;;;-144.99;100.00;52609.13;5047323;28;19987;-68
2021/12/05 13:58:30;;;;;;;;;;;;;;;-144.99;100.00;52623.38;5053177;28;20011;-68
2021/12/05 14:00:58;;;;;;;;;;;;;;;-144.99;100.00;52647.84;5051730;28;19988;-68
2021/12/05 14:03:44;;;;;;;;;;;;;;;-144.99;100.00;52647.84;5052816;28;20000;-68
2021/12/05 14:06:37;;;;;;;;;;;;;;;-144.99;100.00;52623.38;5051591;28;20001;-68
2021/12/05 14:09:07;;;;;;;;;;;;;;;-144.99;100.00;52619.31;5000820;28;20060;-68
2021/12/05 14:11:35;;;;;;;;;;;;;;;-144.99;100.00;52631.53;5060900;28;20477;-68
2021/12/05 14:14:03;;;;;;;;;;;;;;;-144.99;100.00;52684.53;5050411;28;20368;-68
2021/12/05 14:16:31;;;;;;;;;;;;;;;-144.99;100.00;52611.16;5054470;28;20567;-68
2021/12/05 14:18:58;;;;;;;;;;;;;;;-144.99;100.00;52647.84;5048220;28;19977;-68
2021/12/05 14:21:26;;;;;;;;;;;;;;;-144.99;100.00;52627.47;5051626;28;19977;-68
2021/12/05 14:23:54;;;;;;;;;;;;;;;-144.99;100.00;52635.63;5047578;28;20104;-68
2021/12/05 14:26:26;;;;;;;;;;;;;;;-144.99;100.00;52668.22;5054502;28;19988;-68
2021/12/05 14:28:56;;;;;;;;;;;;;;;-144.99;100.00;52645.81;5049793;28;19986;-68
2021/12/05 14:31:24;;;;;;;;;;;;;;;-144.99;100.00;52696.78;5051240;28;20000;-68
2021/12/05 14:33:51;;;;;;;;;;;;;;;-144.99;100.00;52664.16;5055152;28;20386;-68
2021/12/05 14:36:22;;;;;;;;;;;;;;;-144.99;100.00;52647.84;5047906;28;20021;-68
2021/12/05 14:39:04;;;;;;;;;;;;;;;-144.99;100.00;52631.53;5042409;28;20019;-69
2021/12/05 14:41:32;;;;;;;;;;;;;;;-144.99;100.00;52651.94;5048101;28;19977;-69
2021/12/05 14:43:59;;;;;;;;;;;;;;;-144.99;100.00;52664.16;5051713;28;20539;-69
2021/12/05 14:46:26;;;;;;;;;;;;;;;-144.99;100.00;52668.22;5058221;28;20001;-70
2021/12/05 14:48:55;;;;;;;;;;;;;;;-144.99;100.00;52647.84;5052156;28;19977;-69
2021/12/05 14:51:31;;;;;;;;;;;;;;;-144.99;100.00;52647.84;5040405;28;20434;-69
2021/12/05 14:53:58;;;;;;;;;;;;;;;-144.99;100.00;52680.47;5051098;28;20247;-70
2021/12/05 14:56:27;;;;;;;;;;;;;;;-144.99;100.00;52680.47;5049105;28;20450;-70
2021/12/05 14:59:02;;;;;;;;;;;;;;;-144.99;100.00;52627.47;5052213;28;19977;-70
2021/12/05 15:01:29;;;;;;;;;;;;;;;-144.99;100.00;52643.78;5051320;28;19973;-70
2021/12/05 15:03:55;;;;;;;;;;;;;;;-144.99;100.00;52668.22;5050387;28;19998;-69
2021/12/05 15:06:30;;;;;;;;;;;;;;;-144.99;100.00;52662.13;5051604;28;19992;-69
2021/12/05 15:08:56;;;;;;;;;;;;;;;-144.99;100.00;52676.38;5047248;28;20604;-69
2021/12/05 15:11:23;;;;;;;;;;;;;;;-144.99;100.00;52611.16;5051939;28;19992;-69
2021/12/05 15:13:50;;;;;;;;;;;;;;;-144.99;100.00;52692.69;5047833;28;19996;-69
2021/12/05 15:16:17;;;;;;;;;;;;;;;-144.99;100.00;52639.69;5048267;28;20020;-69
2021/12/05 15:18:44;;;;;;;;;;;;;;;-144.99;100.00;52664.16;5052104;28;21574;-69
2021/12/05 15:21:10;;;;;;;;;;;;;;;-144.99;100.00;52617.28;5041093;28;20267;-68
2021/12/05 15:23:40;;;;;;;;;;;;;;;-144.99;100.00;52653.97;5040569;28;20024;-69
2021/12/05 15:26:07;;;;;;;;;;;;;;;-144.99;100.00;52635.63;5039917;28;20454;-68
2021/12/05 15:28:35;;;;;;;;;;;;;;;-144.99;100.00;52696.78;5041274;28;19982;-69
2021/12/05 15:31:02;;;;;;;;;;;;;;;-144.99;100.00;52660.09;5041876;28;20076;-69
2021/12/05 15:33:29;;;;;;;;;;;;;;;-144.99;100.00;52631.53;5041202;28;19997;-69
2021/12/05 15:35:58;;;;;;;;;;;;;;;-144.99;100.00;52704.94;5041214;28;20037;-69
2021/12/05 15:38:28;;;;;;;;;;;;;;;-144.99;100.00;52664.16;5040319;28;20074;-69
2021/12/05 15:40:56;;;;;;;;;;;;;;;-144.99;100.00;52629.50;5044565;28;20638;-69
2021/12/05 15:43:24;;;;;;;;;;;;;;;-144.99;100.00;52656.00;5049664;28;20015;-68
2021/12/05 15:45:52;;;;;;;;;;;;;;;-144.99;100.00;52664.16;5056207;28;20031;-67
2021/12/05 15:48:21;;;;;;;;;;;;;;;-144.99;100.00;52647.84;5058993;28;19981;-68
2021/12/05 15:50:51;;;;;;;;;;;;;;;-144.99;100.00;52643.78;5058084;28;19977;-68
2021/12/05 15:53:17;;;;;;;;;;;;;;;-144.99;100.00;52680.47;5051125;28;19997;-68
2021/12/05 15:55:44;;;;;;;;;;;;;;;-144.99;100.00;52676.38;5052308;28;19977;-68
2021/12/05 15:58:12;;;;;;;;;;;;;;;-144.99;100.00;52668.22;5058628;28;20327;-68
2021/12/05 16:00:40;;;;;;;;;;;;;;;-144.99;100.00;52643.78;5047998;28;19996;-69
2021/12/05 16:03:08;;;;;;;;;;;;;;;-144.99;100.00;52676.38;5049284;28;19992;-68
2021/12/05 16:05:35;;;;;;;;;;;;;;;-144.99;100.00;52668.22;5051077;28;20488;-68
2021/12/05 16:08:04;;;;;;;;;;;;;;;-144.99;100.00;52660.09;5046453;28;19986;-68
2021/12/05 16:10:32;;;;;;;;;;;;;;;-144.99;100.00;52647.84;5044990;28;19977;-68
2021/12/05 16:12:59;;;;;;;;;;;;;;;-144.99;100.00;52670.28;5056568;28;20037;-68
2021/12/05 16:15:27;;;;;;;;;;;;;;;-144.99;100.00;52653.97;5047185;28;19978;-70
2021/12/05 16:17:55;;;;;;;;;;;;;;;-144.99;100.00;52641.72;5049597;28;19978;-68
2021/12/05 16:20:23;;;;;;;;;;;;;;;-144.99;100.00;52680.47;5049971;28;19984;-70
2021/12/05 16:22:56;;;;;;;;;;;;;;;-144.99;100.00;52656.00;5045859;28;20072;-69
2021/12/05 16:25:25;;;;;;;;;;;;;;;-144.99;100.00;52643.78;5047851;28;19981;-69
2021/12/05 16:27:52;;;;;;;;;;;;;;;-144.99;100.00;52603.00;5041891;28;19977;-69
2021/12/05 16:30:22;;;;;;;;;;;;;;;-144.99;100.00;52609.13;5045313;28;19981;-69
2021/12/05 16:32:48;;;;;;;;;;;;;;;-144.99;100.00;52647.84;5045840;28;19993;-68
2021/12/05 16:35:24;;;;;;;;;;;;;;;-144.99;100.00;52668.22;5056295;28;19988;-69
2021/12/05 16:37:50;;;;;;;;;;;;;;;-144.99;100.00;52631.53;5047747;28;20004;-69
2021/12/05 16:40:17;;;;;;;;;;;;;;;-144.99;100.00;52647.84;5040809;28;19981;-68
2021/12/05 16:42:45;;;;;;;;;;;;;;;-144.99;100.00;52664.16;5054638;28;19980;-68
2021/12/05 16:45:12;;;;;;;;;;;;;;;-144.99;100.00;52631.53;5050971;28;19987;-68
2021/12/05 16:47:38;;;;;;;;;;;;;;;-144.99;100.00;52656.00;5045760;28;19977;-68
2021/12/05 16:50:07;;;;;;;;;;;;;;;-144.99;100.00;52598.94;5049386;28;19985;-68
2021/12/05 16:52:37;;;;;;;;;;;;;;;-144.99;100.00;52682.50;5056411;28;19992;-67
2021/12/05 16:55:10;;;;;;;;;;;;;;;-144.99;100.00;52660.09;5044431;28;19982;-67